sensor_id;sensor_type;location;lat;lon;timestamp;P1;durP1;ratioP1;P2;durP2;ratioP2
9914;SDS011;4996;48.746;9.174;2023-01-29T00:01:53;8.43;;;5.80;;
9914;SDS011;4996;48.746;9.174;2023-01-29T00:04:18;9.30;;;5.70;;
9914;SDS011;4996;48.746;9.174;2023-01-29T00:06:44;7.80;;;5.97;;
9914;SDS011;4996;48.746;9.174;2023-01-29T00:09:10;7.83;;;6.40;;
9914;SDS011;4996;48.746;9.174;2023-01-29T00:11:37;11.65;;;6.47;;
9914;SDS011;4996;48.746;9.174;2023-01-29T00:14:03;6.83;;;5.43;;
9914;SDS011;4996;48.746;9.174;2023-01-29T00:16:28;11.17;;;7.27;;
9914;SDS011;4996;48.746;9.174;2023-01-29T00:18:54;9.57;;;6.07;;
9914;SDS011;4996;48.746;9.174;2023-01-29T00:21:20;10.33;;;5.90;;
9914;SDS011;4996;48.746;9.174;2023-01-29T00:23:47;7.18;;;5.68;;
9914;SDS011;4996;48.746;9.174;2023-01-29T00:26:13;12.77;;;7.65;;
9914;SDS011;4996;48.746;9.174;2023-01-29T00:28:39;12.20;;;6.57;;
9914;SDS011;4996;48.746;9.174;2023-01-29T00:31:15;12.43;;;5.20;;
9914;SDS011;4996;48.746;9.174;2023-01-29T00:33:42;8.35;;;5.90;;
9914;SDS011;4996;48.746;9.174;2023-01-29T00:36:09;13.63;;;7.30;;
9914;SDS011;4996;48.746;9.174;2023-01-29T00:38:37;11.60;;;6.32;;
9914;SDS011;4996;48.746;9.174;2023-01-29T00:41:10;10.53;;;6.03;;
9914;SDS011;4996;48.746;9.174;2023-01-29T00:43:56;9.55;;;6.00;;
9914;SDS011;4996;48.746;9.174;2023-01-29T00:46:41;7.22;;;5.50;;
9914;SDS011;4996;48.746;9.174;2023-01-29T00:49:07;10.73;;;6.57;;
9914;SDS011;4996;48.746;9.174;2023-01-29T00:51:33;9.40;;;5.65;;
9914;SDS011;4996;48.746;9.174;2023-01-29T00:53:59;9.75;;;6.35;;
9914;SDS011;4996;48.746;9.174;2023-01-29T00:56:26;10.87;;;6.67;;
9914;SDS011;4996;48.746;9.174;2023-01-29T00:58:52;11.57;;;5.07;;
9914;SDS011;4996;48.746;9.174;2023-01-29T01:01:19;10.75;;;6.35;;
9914;SDS011;4996;48.746;9.174;2023-01-29T01:04:05;6.80;;;5.13;;
9914;SDS011;4996;48.746;9.174;2023-01-29T01:06:30;9.00;;;6.00;;
9914;SDS011;4996;48.746;9.174;2023-01-29T01:08:56;8.17;;;5.53;;
9914;SDS011;4996;48.746;9.174;2023-01-29T01:11:40;9.23;;;6.38;;
9914;SDS011;4996;48.746;9.174;2023-01-29T01:14:06;7.80;;;5.67;;
9914;SDS011;4996;48.746;9.174;2023-01-29T01:16:32;9.20;;;6.37;;
9914;SDS011;4996;48.746;9.174;2023-01-29T01:18:57;7.47;;;5.43;;
9914;SDS011;4996;48.746;9.174;2023-01-29T01:21:22;7.77;;;4.87;;
9914;SDS011;4996;48.746;9.174;2023-01-29T01:23:48;8.03;;;5.40;;
9914;SDS011;4996;48.746;9.174;2023-01-29T01:26:16;10.40;;;5.95;;
9914;SDS011;4996;48.746;9.174;2023-01-29T01:28:44;7.93;;;5.70;;
9914;SDS011;4996;48.746;9.174;2023-01-29T01:31:10;9.20;;;6.33;;
9914;SDS011;4996;48.746;9.174;2023-01-29T01:33:37;7.35;;;5.80;;
9914;SDS011;4996;48.746;9.174;2023-01-29T01:36:03;11.65;;;5.68;;
9914;SDS011;4996;48.746;9.174;2023-01-29T01:38:33;8.27;;;5.03;;
9914;SDS011;4996;48.746;9.174;2023-01-29T01:41:08;6.82;;;5.32;;
9914;SDS011;4996;48.746;9.174;2023-01-29T01:43:56;8.85;;;5.18;;
9914;SDS011;4996;48.746;9.174;2023-01-29T01:46:23;7.57;;;5.40;;
9914;SDS011;4996;48.746;9.174;2023-01-29T01:48:53;19.23;;;6.25;;
9914;SDS011;4996;48.746;9.174;2023-01-29T01:51:23;11.00;;;5.63;;
9914;SDS011;4996;48.746;9.174;2023-01-29T01:53:57;7.47;;;5.15;;
9914;SDS011;4996;48.746;9.174;2023-01-29T01:56:32;6.20;;;4.65;;
9914;SDS011;4996;48.746;9.174;2023-01-29T01:59:04;10.85;;;7.05;;
9914;SDS011;4996;48.746;9.174;2023-01-29T02:01:33;8.15;;;5.07;;
9914;SDS011;4996;48.746;9.174;2023-01-29T02:04:09;7.50;;;5.30;;
9914;SDS011;4996;48.746;9.174;2023-01-29T02:07:01;9.25;;;5.75;;
9914;SDS011;4996;48.746;9.174;2023-01-29T02:10:00;9.13;;;6.00;;
9914;SDS011;4996;48.746;9.174;2023-01-29T02:12:37;9.18;;;5.00;;
9914;SDS011;4996;48.746;9.174;2023-01-29T02:15:04;5.22;;;4.05;;
9914;SDS011;4996;48.746;9.174;2023-01-29T02:17:30;8.07;;;5.05;;
9914;SDS011;4996;48.746;9.174;2023-01-29T02:42:49;5.90;;;4.18;;
9914;SDS011;4996;48.746;9.174;2023-01-29T02:44:54;7.43;;;4.70;;
9914;SDS011;4996;48.746;9.174;2023-01-29T02:47:43;5.82;;;5.03;;
9914;SDS011;4996;48.746;9.174;2023-01-29T02:50:20;6.68;;;4.53;;
9914;SDS011;4996;48.746;9.174;2023-01-29T02:53:08;8.43;;;5.50;;
9914;SDS011;4996;48.746;9.174;2023-01-29T02:55:43;6.55;;;4.45;;
9914;SDS011;4996;48.746;9.174;2023-01-29T02:58:16;7.65;;;3.95;;
9914;SDS011;4996;48.746;9.174;2023-01-29T03:00:46;10.68;;;6.10;;
9914;SDS011;4996;48.746;9.174;2023-01-29T03:03:17;7.00;;;5.25;;
9914;SDS011;4996;48.746;9.174;2023-01-29T03:05:58;5.32;;;3.88;;
9914;SDS011;4996;48.746;9.174;2023-01-29T03:08:42;9.15;;;5.32;;
9914;SDS011;4996;48.746;9.174;2023-01-29T03:11:14;8.18;;;5.03;;
9914;SDS011;4996;48.746;9.174;2023-01-29T03:13:55;7.45;;;5.30;;
9914;SDS011;4996;48.746;9.174;2023-01-29T03:19:18;8.70;;;5.95;;
9914;SDS011;4996;48.746;9.174;2023-01-29T03:21:58;8.13;;;5.00;;
9914;SDS011;4996;48.746;9.174;2023-01-29T03:24:38;8.23;;;6.05;;
9914;SDS011;4996;48.746;9.174;2023-01-29T03:27:30;13.63;;;6.45;;
9914;SDS011;4996;48.746;9.174;2023-01-29T03:30:18;19.45;;;6.75;;
9914;SDS011;4996;48.746;9.174;2023-01-29T03:33:05;8.60;;;6.55;;
9914;SDS011;4996;48.746;9.174;2023-01-29T03:35:34;7.55;;;4.93;;
9914;SDS011;4996;48.746;9.174;2023-01-29T03:38:04;8.68;;;5.13;;
9914;SDS011;4996;48.746;9.174;2023-01-29T03:40:42;8.30;;;5.60;;
9914;SDS011;4996;48.746;9.174;2023-01-29T03:44:09;8.02;;;5.22;;
9914;SDS011;4996;48.746;9.174;2023-01-29T03:46:22;8.52;;;4.70;;
9914;SDS011;4996;48.746;9.174;2023-01-29T03:54:28;7.72;;;5.68;;
9914;SDS011;4996;48.746;9.174;2023-01-29T04:00:49;9.25;;;5.72;;
9914;SDS011;4996;48.746;9.174;2023-01-29T04:03:17;10.30;;;6.07;;
9914;SDS011;4996;48.746;9.174;2023-01-29T04:05:52;6.75;;;4.25;;
9914;SDS011;4996;48.746;9.174;2023-01-29T04:08:37;8.27;;;6.10;;
9914;SDS011;4996;48.746;9.174;2023-01-29T04:11:22;10.20;;;5.28;;
9914;SDS011;4996;48.746;9.174;2023-01-29T04:13:49;14.93;;;5.72;;
9914;SDS011;4996;48.746;9.174;2023-01-29T04:16:35;9.48;;;5.35;;
9914;SDS011;4996;48.746;9.174;2023-01-29T04:19:04;8.45;;;4.30;;
9914;SDS011;4996;48.746;9.174;2023-01-29T04:21:30;8.48;;;5.03;;
9914;SDS011;4996;48.746;9.174;2023-01-29T04:23:56;9.93;;;4.65;;
9914;SDS011;4996;48.746;9.174;2023-01-29T04:34:49;8.35;;;4.95;;
9914;SDS011;4996;48.746;9.174;2023-01-29T04:37:20;8.32;;;5.00;;
9914;SDS011;4996;48.746;9.174;2023-01-29T04:39:59;8.25;;;4.90;;
9914;SDS011;4996;48.746;9.174;2023-01-29T04:45:26;7.30;;;5.22;;
9914;SDS011;4996;48.746;9.174;2023-01-29T04:48:21;11.73;;;6.60;;
9914;SDS011;4996;48.746;9.174;2023-01-29T04:53:26;10.73;;;5.27;;
9914;SDS011;4996;48.746;9.174;2023-01-29T04:56:14;9.63;;;5.30;;
9914;SDS011;4996;48.746;9.174;2023-01-29T04:59:10;8.50;;;5.47;;
9914;SDS011;4996;48.746;9.174;2023-01-29T05:01:40;9.80;;;5.25;;
9914;SDS011;4996;48.746;9.174;2023-01-29T05:04:07;8.65;;;5.53;;
9914;SDS011;4996;48.746;9.174;2023-01-29T05:06:37;9.73;;;6.13;;
9914;SDS011;4996;48.746;9.174;2023-01-29T05:09:04;15.30;;;7.35;;
9914;SDS011;4996;48.746;9.174;2023-01-29T05:11:31;6.90;;;4.88;;
9914;SDS011;4996;48.746;9.174;2023-01-29T05:13:59;7.40;;;4.93;;
9914;SDS011;4996;48.746;9.174;2023-01-29T05:16:29;15.85;;;6.07;;
9914;SDS011;4996;48.746;9.174;2023-01-29T05:19:06;13.20;;;7.13;;
9914;SDS011;4996;48.746;9.174;2023-01-29T05:21:33;12.18;;;6.10;;
9914;SDS011;4996;48.746;9.174;2023-01-29T05:26:35;6.32;;;4.65;;
9914;SDS011;4996;48.746;9.174;2023-01-29T05:29:19;9.57;;;5.55;;
9914;SDS011;4996;48.746;9.174;2023-01-29T05:31:45;9.90;;;5.18;;
9914;SDS011;4996;48.746;9.174;2023-01-29T05:34:11;14.83;;;5.60;;
9914;SDS011;4996;48.746;9.174;2023-01-29T05:36:36;8.43;;;5.40;;
9914;SDS011;4996;48.746;9.174;2023-01-29T05:39:02;9.50;;;6.57;;
9914;SDS011;4996;48.746;9.174;2023-01-29T05:41:28;7.63;;;4.77;;
9914;SDS011;4996;48.746;9.174;2023-01-29T05:43:53;8.90;;;5.53;;
9914;SDS011;4996;48.746;9.174;2023-01-29T05:46:19;10.23;;;4.83;;
9914;SDS011;4996;48.746;9.174;2023-01-29T05:48:44;9.80;;;5.70;;
9914;SDS011;4996;48.746;9.174;2023-01-29T05:51:10;8.90;;;5.87;;
9914;SDS011;4996;48.746;9.174;2023-01-29T05:53:35;5.90;;;5.30;;
9914;SDS011;4996;48.746;9.174;2023-01-29T05:56:01;8.93;;;5.50;;
9914;SDS011;4996;48.746;9.174;2023-01-29T05:58:29;11.10;;;5.93;;
9914;SDS011;4996;48.746;9.174;2023-01-29T06:00:55;10.07;;;4.95;;
9914;SDS011;4996;48.746;9.174;2023-01-29T06:03:21;9.23;;;5.00;;
9914;SDS011;4996;48.746;9.174;2023-01-29T06:05:47;7.17;;;5.50;;
9914;SDS011;4996;48.746;9.174;2023-01-29T06:08:12;6.20;;;5.27;;
9914;SDS011;4996;48.746;9.174;2023-01-29T06:10:37;8.20;;;5.30;;
9914;SDS011;4996;48.746;9.174;2023-01-29T06:13:03;7.13;;;5.67;;
9914;SDS011;4996;48.746;9.174;2023-01-29T06:15:28;7.90;;;5.53;;
9914;SDS011;4996;48.746;9.174;2023-01-29T06:17:54;15.87;;;5.90;;
9914;SDS011;4996;48.746;9.174;2023-01-29T06:20:21;9.82;;;5.05;;
9914;SDS011;4996;48.746;9.174;2023-01-29T06:22:46;10.30;;;5.40;;
9914;SDS011;4996;48.746;9.174;2023-01-29T06:25:12;8.73;;;6.07;;
9914;SDS011;4996;48.746;9.174;2023-01-29T06:27:37;11.60;;;6.10;;
9914;SDS011;4996;48.746;9.174;2023-01-29T06:30:03;11.83;;;5.20;;
9914;SDS011;4996;48.746;9.174;2023-01-29T06:32:30;9.77;;;5.72;;
9914;SDS011;4996;48.746;9.174;2023-01-29T06:34:55;12.63;;;6.83;;
9914;SDS011;4996;48.746;9.174;2023-01-29T06:37:21;8.40;;;5.13;;
9914;SDS011;4996;48.746;9.174;2023-01-29T06:39:46;13.37;;;7.43;;
9914;SDS011;4996;48.746;9.174;2023-01-29T06:42:12;9.50;;;5.90;;
9914;SDS011;4996;48.746;9.174;2023-01-29T06:44:37;6.73;;;5.00;;
9914;SDS011;4996;48.746;9.174;2023-01-29T06:47:03;10.20;;;5.77;;
9914;SDS011;4996;48.746;9.174;2023-01-29T06:49:28;6.50;;;4.20;;
9914;SDS011;4996;48.746;9.174;2023-01-29T06:51:54;5.90;;;4.53;;
9914;SDS011;4996;48.746;9.174;2023-01-29T06:54:19;7.77;;;6.00;;
9914;SDS011;4996;48.746;9.174;2023-01-29T06:56:45;8.33;;;4.63;;
9914;SDS011;4996;48.746;9.174;2023-01-29T06:59:10;10.90;;;5.70;;
9914;SDS011;4996;48.746;9.174;2023-01-29T07:01:39;6.90;;;5.33;;
9914;SDS011;4996;48.746;9.174;2023-01-29T07:04:07;7.35;;;5.20;;
9914;SDS011;4996;48.746;9.174;2023-01-29T07:06:34;11.15;;;6.22;;
9914;SDS011;4996;48.746;9.174;2023-01-29T07:08:59;10.60;;;6.53;;
9914;SDS011;4996;48.746;9.174;2023-01-29T07:11:25;7.40;;;4.37;;
9914;SDS011;4996;48.746;9.174;2023-01-29T07:13:51;9.87;;;5.10;;
9914;SDS011;4996;48.746;9.174;2023-01-29T07:16:16;6.47;;;5.13;;
9914;SDS011;4996;48.746;9.174;2023-01-29T07:18:43;9.30;;;6.45;;
9914;SDS011;4996;48.746;9.174;2023-01-29T07:21:08;9.63;;;4.73;;
9914;SDS011;4996;48.746;9.174;2023-01-29T07:23:34;7.00;;;5.23;;
9914;SDS011;4996;48.746;9.174;2023-01-29T07:26:00;8.10;;;5.63;;
9914;SDS011;4996;48.746;9.174;2023-01-29T07:28:27;8.07;;;4.80;;
9914;SDS011;4996;48.746;9.174;2023-01-29T07:30:56;10.17;;;5.40;;
9914;SDS011;4996;48.746;9.174;2023-01-29T07:33:22;10.32;;;5.82;;
9914;SDS011;4996;48.746;9.174;2023-01-29T07:35:48;7.28;;;4.78;;
9914;SDS011;4996;48.746;9.174;2023-01-29T07:38:14;11.27;;;6.40;;
9914;SDS011;4996;48.746;9.174;2023-01-29T07:40:39;8.80;;;5.73;;
9914;SDS011;4996;48.746;9.174;2023-01-29T07:43:05;8.47;;;5.67;;
9914;SDS011;4996;48.746;9.174;2023-01-29T07:45:32;11.75;;;5.22;;
9914;SDS011;4996;48.746;9.174;2023-01-29T07:47:59;9.63;;;5.70;;
9914;SDS011;4996;48.746;9.174;2023-01-29T07:50:25;7.77;;;5.77;;
9914;SDS011;4996;48.746;9.174;2023-01-29T07:52:54;7.78;;;5.60;;
9914;SDS011;4996;48.746;9.174;2023-01-29T07:55:20;12.27;;;7.22;;
9914;SDS011;4996;48.746;9.174;2023-01-29T07:57:45;7.80;;;6.20;;
9914;SDS011;4996;48.746;9.174;2023-01-29T08:00:11;9.77;;;6.17;;
9914;SDS011;4996;48.746;9.174;2023-01-29T08:02:38;6.93;;;5.00;;
9914;SDS011;4996;48.746;9.174;2023-01-29T08:05:05;8.63;;;5.72;;
9914;SDS011;4996;48.746;9.174;2023-01-29T08:07:31;8.93;;;5.97;;
9914;SDS011;4996;48.746;9.174;2023-01-29T08:09:56;11.63;;;6.80;;
9914;SDS011;4996;48.746;9.174;2023-01-29T08:12:22;6.03;;;5.23;;
9914;SDS011;4996;48.746;9.174;2023-01-29T08:14:47;9.80;;;6.23;;
9914;SDS011;4996;48.746;9.174;2023-01-29T08:17:14;8.45;;;6.13;;
9914;SDS011;4996;48.746;9.174;2023-01-29T08:19:39;8.23;;;5.80;;
9914;SDS011;4996;48.746;9.174;2023-01-29T08:22:05;7.90;;;5.80;;
9914;SDS011;4996;48.746;9.174;2023-01-29T08:24:30;9.10;;;6.10;;
9914;SDS011;4996;48.746;9.174;2023-01-29T08:26:56;10.40;;;7.00;;
9914;SDS011;4996;48.746;9.174;2023-01-29T08:29:22;11.03;;;6.13;;
9914;SDS011;4996;48.746;9.174;2023-01-29T08:31:47;8.23;;;5.60;;
9914;SDS011;4996;48.746;9.174;2023-01-29T08:34:13;9.70;;;6.90;;
9914;SDS011;4996;48.746;9.174;2023-01-29T08:36:38;8.90;;;4.73;;
9914;SDS011;4996;48.746;9.174;2023-01-29T08:39:04;10.70;;;7.40;;
9914;SDS011;4996;48.746;9.174;2023-01-29T08:41:30;8.77;;;5.53;;
9914;SDS011;4996;48.746;9.174;2023-01-29T08:43:55;10.37;;;6.60;;
9914;SDS011;4996;48.746;9.174;2023-01-29T08:46:22;9.23;;;6.15;;
9914;SDS011;4996;48.746;9.174;2023-01-29T08:48:47;8.50;;;7.03;;
9914;SDS011;4996;48.746;9.174;2023-01-29T08:51:13;9.83;;;6.07;;
9914;SDS011;4996;48.746;9.174;2023-01-29T08:53:39;18.30;;;7.67;;
9914;SDS011;4996;48.746;9.174;2023-01-29T08:56:04;12.47;;;6.10;;
9914;SDS011;4996;48.746;9.174;2023-01-29T08:58:30;8.53;;;6.07;;
9914;SDS011;4996;48.746;9.174;2023-01-29T09:00:55;10.13;;;7.40;;
9914;SDS011;4996;48.746;9.174;2023-01-29T09:03:21;7.20;;;5.83;;
9914;SDS011;4996;48.746;9.174;2023-01-29T09:05:47;10.43;;;6.40;;
9914;SDS011;4996;48.746;9.174;2023-01-29T09:08:13;8.55;;;6.30;;
9914;SDS011;4996;48.746;9.174;2023-01-29T09:10:39;9.35;;;6.88;;
9914;SDS011;4996;48.746;9.174;2023-01-29T09:13:05;11.37;;;7.73;;
9914;SDS011;4996;48.746;9.174;2023-01-29T09:15:30;9.43;;;7.13;;
9914;SDS011;4996;48.746;9.174;2023-01-29T09:17:56;9.80;;;7.37;;
9914;SDS011;4996;48.746;9.174;2023-01-29T09:20:21;10.47;;;7.07;;
9914;SDS011;4996;48.746;9.174;2023-01-29T09:22:47;8.80;;;7.33;;
9914;SDS011;4996;48.746;9.174;2023-01-29T09:25:15;9.98;;;6.78;;
9914;SDS011;4996;48.746;9.174;2023-01-29T09:27:40;9.63;;;7.97;;
9914;SDS011;4996;48.746;9.174;2023-01-29T09:30:06;10.23;;;6.87;;
9914;SDS011;4996;48.746;9.174;2023-01-29T09:32:32;12.33;;;7.50;;
9914;SDS011;4996;48.746;9.174;2023-01-29T09:34:58;9.52;;;7.13;;
9914;SDS011;4996;48.746;9.174;2023-01-29T09:37:24;13.80;;;7.70;;
9914;SDS011;4996;48.746;9.174;2023-01-29T09:39:49;8.77;;;6.83;;
9914;SDS011;4996;48.746;9.174;2023-01-29T09:47:36;11.85;;;8.65;;
9914;SDS011;4996;48.746;9.174;2023-01-29T09:50:12;15.57;;;9.13;;
9914;SDS011;4996;48.746;9.174;2023-01-29T09:52:46;12.13;;;8.43;;
9914;SDS011;4996;48.746;9.174;2023-01-29T10:01:15;10.80;;;7.47;;
9914;SDS011;4996;48.746;9.174;2023-01-29T10:23:06;9.82;;;6.43;;
9914;SDS011;4996;48.746;9.174;2023-01-29T10:25:38;10.57;;;7.70;;
9914;SDS011;4996;48.746;9.174;2023-01-29T10:29:06;11.75;;;7.22;;
9914;SDS011;4996;48.746;9.174;2023-01-29T10:31:07;9.75;;;6.05;;
9914;SDS011;4996;48.746;9.174;2023-01-29T10:33:39;12.60;;;8.15;;
9914;SDS011;4996;48.746;9.174;2023-01-29T10:36:12;10.88;;;7.60;;
9914;SDS011;4996;48.746;9.174;2023-01-29T10:38:44;9.30;;;6.05;;
9914;SDS011;4996;48.746;9.174;2023-01-29T10:41:18;10.45;;;7.47;;
9914;SDS011;4996;48.746;9.174;2023-01-29T10:44:11;11.10;;;8.32;;
9914;SDS011;4996;48.746;9.174;2023-01-29T10:52:22;10.48;;;7.13;;
9914;SDS011;4996;48.746;9.174;2023-01-29T10:55:13;9.15;;;6.03;;
9914;SDS011;4996;48.746;9.174;2023-01-29T10:58:15;7.78;;;6.40;;
9914;SDS011;4996;48.746;9.174;2023-01-29T11:00:54;9.55;;;6.20;;
9914;SDS011;4996;48.746;9.174;2023-01-29T11:03:21;12.82;;;7.70;;
9914;SDS011;4996;48.746;9.174;2023-01-29T11:05:55;9.48;;;6.97;;
9914;SDS011;4996;48.746;9.174;2023-01-29T11:08:27;10.77;;;7.32;;
9914;SDS011;4996;48.746;9.174;2023-01-29T11:11:07;8.20;;;6.03;;
9914;SDS011;4996;48.746;9.174;2023-01-29T11:13:59;9.40;;;7.05;;
9914;SDS011;4996;48.746;9.174;2023-01-29T11:16:40;9.90;;;7.18;;
9914;SDS011;4996;48.746;9.174;2023-01-29T11:19:07;12.00;;;6.82;;
9914;SDS011;4996;48.746;9.174;2023-01-29T11:21:47;9.93;;;6.63;;
9914;SDS011;4996;48.746;9.174;2023-01-29T11:24:23;11.82;;;8.70;;
9914;SDS011;4996;48.746;9.174;2023-01-29T11:26:50;11.97;;;8.50;;
9914;SDS011;4996;48.746;9.174;2023-01-29T11:32:06;8.85;;;6.88;;
9914;SDS011;4996;48.746;9.174;2023-01-29T11:34:45;11.48;;;7.22;;
9914;SDS011;4996;48.746;9.174;2023-01-29T11:37:30;10.63;;;6.97;;
9914;SDS011;4996;48.746;9.174;2023-01-29T11:42:47;12.00;;;7.68;;
9914;SDS011;4996;48.746;9.174;2023-01-29T11:45:34;12.60;;;8.45;;
9914;SDS011;4996;48.746;9.174;2023-01-29T11:48:02;10.00;;;7.00;;
9914;SDS011;4996;48.746;9.174;2023-01-29T11:50:28;10.57;;;7.60;;
9914;SDS011;4996;48.746;9.174;2023-01-29T11:52:59;14.05;;;8.10;;
9914;SDS011;4996;48.746;9.174;2023-01-29T11:55:27;12.27;;;8.18;;
9914;SDS011;4996;48.746;9.174;2023-01-29T11:57:58;9.20;;;7.00;;
9914;SDS011;4996;48.746;9.174;2023-01-29T12:00:35;13.48;;;7.13;;
9914;SDS011;4996;48.746;9.174;2023-01-29T12:03:11;11.90;;;8.32;;
9914;SDS011;4996;48.746;9.174;2023-01-29T12:06:01;13.35;;;8.57;;
9914;SDS011;4996;48.746;9.174;2023-01-29T12:08:38;13.07;;;8.60;;
9914;SDS011;4996;48.746;9.174;2023-01-29T12:11:08;10.63;;;7.63;;
9914;SDS011;4996;48.746;9.174;2023-01-29T12:13:39;9.65;;;6.47;;
9914;SDS011;4996;48.746;9.174;2023-01-29T12:16:18;18.85;;;12.20;;
9914;SDS011;4996;48.746;9.174;2023-01-29T12:21:45;12.88;;;8.68;;
9914;SDS011;4996;48.746;9.174;2023-01-29T12:24:24;18.40;;;8.27;;
9914;SDS011;4996;48.746;9.174;2023-01-29T12:27:11;17.35;;;8.93;;
9914;SDS011;4996;48.746;9.174;2023-01-29T12:30:21;9.00;;;6.95;;
9914;SDS011;4996;48.746;9.174;2023-01-29T12:35:43;15.40;;;10.38;;
9914;SDS011;4996;48.746;9.174;2023-01-29T12:38:18;13.57;;;8.75;;
9914;SDS011;4996;48.746;9.174;2023-01-29T12:40:50;14.88;;;9.00;;
9914;SDS011;4996;48.746;9.174;2023-01-29T12:43:26;29.00;;;16.40;;
9914;SDS011;4996;48.746;9.174;2023-01-29T12:46:14;25.33;;;12.07;;
9914;SDS011;4996;48.746;9.174;2023-01-29T12:49:08;12.77;;;7.77;;
9914;SDS011;4996;48.746;9.174;2023-01-29T12:51:46;9.00;;;7.10;;
9914;SDS011;4996;48.746;9.174;2023-01-29T12:54:19;8.70;;;7.40;;
9914;SDS011;4996;48.746;9.174;2023-01-29T12:56:52;9.93;;;7.93;;
9914;SDS011;4996;48.746;9.174;2023-01-29T13:01:55;7.70;;;6.63;;
9914;SDS011;4996;48.746;9.174;2023-01-29T13:04:43;11.20;;;7.77;;
9914;SDS011;4996;48.746;9.174;2023-01-29T13:07:22;9.30;;;7.10;;
9914;SDS011;4996;48.746;9.174;2023-01-29T13:09:56;9.20;;;7.00;;
9914;SDS011;4996;48.746;9.174;2023-01-29T13:12:29;9.63;;;6.47;;
9914;SDS011;4996;48.746;9.174;2023-01-29T13:15:02;12.17;;;7.13;;
9914;SDS011;4996;48.746;9.174;2023-01-29T13:17:43;9.00;;;6.20;;
9914;SDS011;4996;48.746;9.174;2023-01-29T13:20:23;11.40;;;6.53;;
9914;SDS011;4996;48.746;9.174;2023-01-29T13:22:52;11.33;;;7.10;;
9914;SDS011;4996;48.746;9.174;2023-01-29T13:25:20;6.53;;;4.90;;
9914;SDS011;4996;48.746;9.174;2023-01-29T13:27:46;11.00;;;5.93;;
9914;SDS011;4996;48.746;9.174;2023-01-29T13:30:31;12.68;;;6.38;;
9914;SDS011;4996;48.746;9.174;2023-01-29T13:33:00;9.25;;;5.90;;
9914;SDS011;4996;48.746;9.174;2023-01-29T13:35:36;7.50;;;5.63;;
9914;SDS011;4996;48.746;9.174;2023-01-29T13:38:04;8.55;;;6.20;;
9914;SDS011;4996;48.746;9.174;2023-01-29T13:40:39;7.80;;;5.60;;
9914;SDS011;4996;48.746;9.174;2023-01-29T13:43:17;12.35;;;7.72;;
9914;SDS011;4996;48.746;9.174;2023-01-29T13:45:45;11.70;;;7.75;;
9914;SDS011;4996;48.746;9.174;2023-01-29T13:50:51;9.38;;;6.10;;
9914;SDS011;4996;48.746;9.174;2023-01-29T13:54:20;11.85;;;8.02;;
9914;SDS011;4996;48.746;9.174;2023-01-29T13:58:56;11.35;;;7.18;;
9914;SDS011;4996;48.746;9.174;2023-01-29T14:06:53;12.45;;;7.70;;
9914;SDS011;4996;48.746;9.174;2023-01-29T14:09:29;10.25;;;5.38;;
9914;SDS011;4996;48.746;9.174;2023-01-29T14:11:56;9.63;;;6.00;;
9914;SDS011;4996;48.746;9.174;2023-01-29T14:17:11;11.95;;;7.30;;
9914;SDS011;4996;48.746;9.174;2023-01-29T14:19:48;13.07;;;7.03;;
9914;SDS011;4996;48.746;9.174;2023-01-29T14:22:19;12.45;;;7.25;;
9914;SDS011;4996;48.746;9.174;2023-01-29T14:24:47;14.82;;;8.57;;
9914;SDS011;4996;48.746;9.174;2023-01-29T14:27:21;12.43;;;8.18;;
9914;SDS011;4996;48.746;9.174;2023-01-29T14:29:49;8.93;;;6.72;;
9914;SDS011;4996;48.746;9.174;2023-01-29T14:32:22;13.43;;;7.78;;
9914;SDS011;4996;48.746;9.174;2023-01-29T14:34:50;11.27;;;7.65;;
9914;SDS011;4996;48.746;9.174;2023-01-29T14:37:49;10.20;;;6.75;;
9914;SDS011;4996;48.746;9.174;2023-01-29T14:42:57;9.68;;;6.60;;
9914;SDS011;4996;48.746;9.174;2023-01-29T14:45:30;11.50;;;7.30;;
9914;SDS011;4996;48.746;9.174;2023-01-29T14:53:14;10.90;;;7.67;;
9914;SDS011;4996;48.746;9.174;2023-01-29T14:58:13;13.70;;;6.70;;
9914;SDS011;4996;48.746;9.174;2023-01-29T15:00:42;10.50;;;7.53;;
9914;SDS011;4996;48.746;9.174;2023-01-29T15:03:21;14.75;;;6.20;;
9914;SDS011;4996;48.746;9.174;2023-01-29T15:06:03;8.00;;;5.55;;
9914;SDS011;4996;48.746;9.174;2023-01-29T15:08:34;15.65;;;7.90;;
9914;SDS011;4996;48.746;9.174;2023-01-29T15:11:11;10.80;;;6.85;;
9914;SDS011;4996;48.746;9.174;2023-01-29T15:14:21;15.07;;;9.05;;
9914;SDS011;4996;48.746;9.174;2023-01-29T15:16:56;17.35;;;8.32;;
9914;SDS011;4996;48.746;9.174;2023-01-29T15:19:34;13.73;;;8.20;;
9914;SDS011;4996;48.746;9.174;2023-01-29T15:24:32;11.68;;;7.22;;
9914;SDS011;4996;48.746;9.174;2023-01-29T15:26:57;10.63;;;6.37;;
9914;SDS011;4996;48.746;9.174;2023-01-29T15:29:23;15.67;;;8.10;;
9914;SDS011;4996;48.746;9.174;2023-01-29T15:31:51;11.32;;;7.30;;
9914;SDS011;4996;48.746;9.174;2023-01-29T15:34:17;16.17;;;8.13;;
9914;SDS011;4996;48.746;9.174;2023-01-29T15:36:42;11.40;;;7.37;;
9914;SDS011;4996;48.746;9.174;2023-01-29T15:41:33;12.27;;;7.37;;
9914;SDS011;4996;48.746;9.174;2023-01-29T15:44:00;9.15;;;6.43;;
9914;SDS011;4996;48.746;9.174;2023-01-29T15:46:26;13.87;;;7.17;;
9914;SDS011;4996;48.746;9.174;2023-01-29T15:49:04;10.95;;;7.38;;
9914;SDS011;4996;48.746;9.174;2023-01-29T15:51:31;12.23;;;7.63;;
9914;SDS011;4996;48.746;9.174;2023-01-29T15:53:58;12.20;;;8.20;;
9914;SDS011;4996;48.746;9.174;2023-01-29T15:56:32;11.38;;;8.55;;
9914;SDS011;4996;48.746;9.174;2023-01-29T15:59:03;18.73;;;10.07;;
9914;SDS011;4996;48.746;9.174;2023-01-29T16:01:32;17.92;;;10.57;;
9914;SDS011;4996;48.746;9.174;2023-01-29T16:03:58;10.33;;;7.23;;
9914;SDS011;4996;48.746;9.174;2023-01-29T16:06:37;15.23;;;8.05;;
9914;SDS011;4996;48.746;9.174;2023-01-29T16:09:04;16.90;;;9.15;;
9914;SDS011;4996;48.746;9.174;2023-01-29T16:11:31;9.10;;;5.78;;
9914;SDS011;4996;48.746;9.174;2023-01-29T16:13:58;14.35;;;7.95;;
9914;SDS011;4996;48.746;9.174;2023-01-29T16:16:26;12.23;;;6.25;;
9914;SDS011;4996;48.746;9.174;2023-01-29T16:18:52;12.75;;;7.88;;
9914;SDS011;4996;48.746;9.174;2023-01-29T16:24:00;19.30;;;12.35;;
9914;SDS011;4996;48.746;9.174;2023-01-29T16:26:32;19.75;;;10.48;;
9914;SDS011;4996;48.746;9.174;2023-01-29T16:29:04;15.50;;;8.82;;
9914;SDS011;4996;48.746;9.174;2023-01-29T16:31:33;24.40;;;12.30;;
9914;SDS011;4996;48.746;9.174;2023-01-29T16:34:04;14.80;;;8.43;;
9914;SDS011;4996;48.746;9.174;2023-01-29T16:36:32;14.50;;;9.55;;
9914;SDS011;4996;48.746;9.174;2023-01-29T16:39:01;17.27;;;10.17;;
9914;SDS011;4996;48.746;9.174;2023-01-29T16:41:31;13.10;;;8.75;;
9914;SDS011;4996;48.746;9.174;2023-01-29T16:46:46;18.80;;;9.70;;
9914;SDS011;4996;48.746;9.174;2023-01-29T16:51:49;16.90;;;8.85;;
9914;SDS011;4996;48.746;9.174;2023-01-29T16:54:15;17.88;;;9.80;;
9914;SDS011;4996;48.746;9.174;2023-01-29T16:56:47;18.42;;;9.70;;
9914;SDS011;4996;48.746;9.174;2023-01-29T16:59:16;15.98;;;9.82;;
9914;SDS011;4996;48.746;9.174;2023-01-29T17:01:45;17.02;;;10.65;;
9914;SDS011;4996;48.746;9.174;2023-01-29T17:04:13;17.10;;;10.63;;
9914;SDS011;4996;48.746;9.174;2023-01-29T17:06:43;17.45;;;8.60;;
9914;SDS011;4996;48.746;9.174;2023-01-29T17:09:21;27.88;;;13.40;;
9914;SDS011;4996;48.746;9.174;2023-01-29T17:11:54;23.85;;;11.38;;
9914;SDS011;4996;48.746;9.174;2023-01-29T17:14:24;21.70;;;11.77;;
9914;SDS011;4996;48.746;9.174;2023-01-29T17:16:55;16.05;;;10.27;;
9914;SDS011;4996;48.746;9.174;2023-01-29T17:19:38;19.48;;;10.02;;
9914;SDS011;4996;48.746;9.174;2023-01-29T17:22:03;12.70;;;7.70;;
9914;SDS011;4996;48.746;9.174;2023-01-29T17:24:32;18.65;;;8.40;;
9914;SDS011;4996;48.746;9.174;2023-01-29T17:26:57;14.90;;;9.50;;
9914;SDS011;4996;48.746;9.174;2023-01-29T17:29:25;15.93;;;9.65;;
9914;SDS011;4996;48.746;9.174;2023-01-29T17:31:54;15.07;;;9.38;;
9914;SDS011;4996;48.746;9.174;2023-01-29T17:34:20;14.95;;;9.00;;
9914;SDS011;4996;48.746;9.174;2023-01-29T17:36:46;11.15;;;7.97;;
9914;SDS011;4996;48.746;9.174;2023-01-29T17:39:21;13.13;;;7.43;;
9914;SDS011;4996;48.746;9.174;2023-01-29T17:41:51;37.05;;;14.68;;
9914;SDS011;4996;48.746;9.174;2023-01-29T17:44:18;21.52;;;12.27;;
9914;SDS011;4996;48.746;9.174;2023-01-29T17:46:44;16.42;;;9.93;;
9914;SDS011;4996;48.746;9.174;2023-01-29T17:49:27;16.88;;;10.75;;
9914;SDS011;4996;48.746;9.174;2023-01-29T17:51:56;13.70;;;8.75;;